AXY629 KABQ-KTUS
Flight info
| Callsign | AXY629 |
|---|---|
| Flight time | 0h 54m |
| Altitude | 40000 |
| Route | LARGO3 ABQ ONM J104 TUS |
| Aircraft | A343/H-SDE2E3FGHIJ4J5M1RWXY/LB1D1 |
Departure
| Time | 2026-04-24 02:00 |
|---|---|
| Airport | Albuquerque International Sunport (KABQ) |
Arrival
| Time | 2026-04-24 02:55 |
|---|---|
| Airport | Tucson International Airport (KTUS) |
| Time | Latitude | Longitude | Altitude | Speed | Heading |
|---|---|---|---|---|---|
| 2026-04-24 00:56 | 35.04775 | -106.61388 | 5338 ft | 0 kts | 255° |
| 2026-04-24 01:45 | 35.04781 | -106.61363 | 5336 ft | 4 kts | 242° |
| 2026-04-24 01:45 | 35.04796 | -106.61336 | 5340 ft | 4 kts | 224° |
| 2026-04-24 01:46 | 35.04817 | -106.61317 | 5341 ft | 4 kts | 205° |
| 2026-04-24 01:46 | 35.04843 | -106.61307 | 5338 ft | 3 kts | 183° |
| 2026-04-24 01:46 | 35.04839 | -106.61308 | 5339 ft | 3 kts | 181° |
| 2026-04-24 01:46 | 35.04819 | -106.61309 | 5341 ft | 4 kts | 181° |
| 2026-04-24 01:47 | 35.04796 | -106.61310 | 5341 ft | 4 kts | 181° |
| 2026-04-24 01:47 | 35.04784 | -106.61310 | 5340 ft | 0 kts | 181° |
| 2026-04-24 01:49 | 35.04778 | -106.61310 | 5339 ft | 2 kts | 181° |
| 2026-04-24 01:49 | 35.04766 | -106.61310 | 5339 ft | 0 kts | 180° |
| 2026-04-24 01:50 | 35.04751 | -106.61310 | 5337 ft | 4 kts | 179° |
| 2026-04-24 01:50 | 35.04713 | -106.61310 | 5335 ft | 7 kts | 180° |
| 2026-04-24 01:50 | 35.04655 | -106.61313 | 5336 ft | 11 kts | 183° |
| 2026-04-24 01:50 | 35.04589 | -106.61286 | 5336 ft | 9 kts | 128° |
| 2026-04-24 01:51 | 35.04581 | -106.61224 | 5336 ft | 8 kts | 93° |
| 2026-04-24 01:51 | 35.04580 | -106.61147 | 5335 ft | 10 kts | 90° |
| 2026-04-24 01:51 | 35.04579 | -106.61047 | 5334 ft | 13 kts | 90° |
| 2026-04-24 01:51 | 35.04580 | -106.60934 | 5334 ft | 14 kts | 89° |
| 2026-04-24 01:52 | 35.04581 | -106.60816 | 5336 ft | 14 kts | 91° |
| 2026-04-24 01:52 | 35.04580 | -106.60735 | 5336 ft | 15 kts | 90° |
| 2026-04-24 01:52 | 35.04580 | -106.60547 | 5334 ft | 18 kts | 90° |
| 2026-04-24 01:52 | 35.04579 | -106.60443 | 5335 ft | 19 kts | 90° |
| 2026-04-24 01:53 | 35.04575 | -106.60285 | 5332 ft | 19 kts | 92° |
| 2026-04-24 01:53 | 35.04574 | -106.60118 | 5333 ft | 21 kts | 88° |
| 2026-04-24 01:53 | 35.04573 | -106.59955 | 5335 ft | 18 kts | 90° |
| 2026-04-24 01:53 | 35.04580 | -106.59802 | 5336 ft | 17 kts | 85° |
| 2026-04-24 01:54 | 35.04579 | -106.59673 | 5335 ft | 16 kts | 96° |
| 2026-04-24 01:54 | 35.04580 | -106.59519 | 5334 ft | 20 kts | 87° |
| 2026-04-24 01:54 | 35.04584 | -106.59350 | 5337 ft | 20 kts | 89° |
| 2026-04-24 01:54 | 35.04585 | -106.59181 | 5336 ft | 21 kts | 90° |
| 2026-04-24 01:55 | 35.04584 | -106.59011 | 5335 ft | 17 kts | 90° |
| 2026-04-24 01:55 | 35.04584 | -106.58877 | 5337 ft | 15 kts | 90° |
| 2026-04-24 01:55 | 35.04582 | -106.58746 | 5336 ft | 16 kts | 91° |
| 2026-04-24 01:55 | 35.04579 | -106.58600 | 5334 ft | 18 kts | 91° |
| 2026-04-24 01:56 | 35.04578 | -106.58450 | 5334 ft | 17 kts | 91° |
| 2026-04-24 01:56 | 35.04576 | -106.58306 | 5333 ft | 17 kts | 90° |
| 2026-04-24 01:56 | 35.04576 | -106.58154 | 5332 ft | 19 kts | 90° |
| 2026-04-24 01:56 | 35.04576 | -106.57986 | 5332 ft | 19 kts | 90° |
| 2026-04-24 01:57 | 35.04575 | -106.57847 | 5333 ft | 11 kts | 90° |
| 2026-04-24 01:57 | 35.04573 | -106.57757 | 5336 ft | 11 kts | 91° |
| 2026-04-24 01:57 | 35.04569 | -106.57652 | 5337 ft | 14 kts | 97° |
| 2026-04-24 01:57 | 35.04525 | -106.57578 | 5335 ft | 7 kts | 160° |
| 2026-04-24 01:58 | 35.04519 | -106.57576 | 5333 ft | 0 kts | 165° |
| 2026-04-24 01:58 | 35.04518 | -106.57576 | 5333 ft | 0 kts | 165° |
| 2026-04-24 01:58 | 35.04499 | -106.57572 | 5335 ft | 5 kts | 173° |
| 2026-04-24 01:59 | 35.04453 | -106.57578 | 5333 ft | 8 kts | 196° |
| 2026-04-24 01:59 | 35.04410 | -106.57628 | 5333 ft | 9 kts | 245° |
| 2026-04-24 01:59 | 35.04406 | -106.57672 | 5320 ft | 0 kts | 269° |
| 2026-04-24 01:59 | 35.04406 | -106.57701 | 5322 ft | 20 kts | 269° |
| 2026-04-24 02:00 | 35.04413 | -106.58196 | 5331 ft | 95 kts | 270° |
| 2026-04-24 02:00 | 35.04417 | -106.59260 | 5330 ft | 153 kts | 271° |
| 2026-04-24 02:00 | 35.04399 | -106.60685 | 5635 ft | 180 kts | 271° |
| 2026-04-24 02:00 | 35.04367 | -106.62224 | 6443 ft | 181 kts | 270° |
| 2026-04-24 02:01 | 35.04335 | -106.63823 | 7102 ft | 193 kts | 271° |
| 2026-04-24 02:01 | 35.04301 | -106.65478 | 7913 ft | 202 kts | 271° |
| 2026-04-24 02:01 | 35.04220 | -106.67275 | 8427 ft | 227 kts | 265° |
| 2026-04-24 02:01 | 35.03639 | -106.69221 | 8964 ft | 262 kts | 241° |
| 2026-04-24 02:02 | 35.02448 | -106.70960 | 9997 ft | 272 kts | 230° |
| 2026-04-24 02:02 | 35.01005 | -106.72540 | 10841 ft | 288 kts | 225° |
| 2026-04-24 02:02 | 34.99377 | -106.74097 | 11437 ft | 306 kts | 222° |
| 2026-04-24 02:02 | 34.97633 | -106.75667 | 12233 ft | 315 kts | 221° |
| 2026-04-24 02:03 | 34.94071 | -106.78883 | 14135 ft | 322 kts | 221° |
| 2026-04-24 02:03 | 34.92281 | -106.80551 | 14999 ft | 326 kts | 221° |
| 2026-04-24 02:03 | 34.90482 | -106.82258 | 15868 ft | 330 kts | 222° |
| 2026-04-24 02:04 | 34.88666 | -106.84002 | 16692 ft | 335 kts | 222° |
| 2026-04-24 02:04 | 34.86829 | -106.85774 | 17562 ft | 339 kts | 222° |
| 2026-04-24 02:04 | 34.84967 | -106.87572 | 18328 ft | 343 kts | 222° |
| 2026-04-24 02:04 | 34.83089 | -106.89382 | 19101 ft | 346 kts | 222° |
| 2026-04-24 02:05 | 34.81190 | -106.91211 | 19908 ft | 349 kts | 223° |
| 2026-04-24 02:05 | 34.79281 | -106.93047 | 20705 ft | 351 kts | 223° |
| 2026-04-24 02:05 | 34.77382 | -106.94874 | 21480 ft | 354 kts | 223° |
| 2026-04-24 02:05 | 34.75446 | -106.96739 | 22238 ft | 357 kts | 224° |
| 2026-04-24 02:06 | 34.73485 | -106.98614 | 22981 ft | 360 kts | 224° |
| 2026-04-24 02:06 | 34.71510 | -107.00497 | 23645 ft | 363 kts | 224° |
| 2026-04-24 02:06 | 34.69521 | -107.02395 | 24234 ft | 365 kts | 224° |
| 2026-04-24 02:06 | 34.67516 | -107.04309 | 24869 ft | 366 kts | 225° |
| 2026-04-24 02:07 | 34.65508 | -107.06227 | 25406 ft | 370 kts | 225° |
| 2026-04-24 02:07 | 34.63477 | -107.08170 | 25910 ft | 374 kts | 225° |
| 2026-04-24 02:07 | 34.61427 | -107.10128 | 26511 ft | 375 kts | 225° |
| 2026-04-24 02:07 | 34.59373 | -107.12087 | 27106 ft | 376 kts | 225° |
| 2026-04-24 02:08 | 34.57312 | -107.14054 | 27649 ft | 378 kts | 225° |
| 2026-04-24 02:08 | 34.55237 | -107.16033 | 28212 ft | 380 kts | 225° |
| 2026-04-24 02:08 | 34.53156 | -107.18016 | 28758 ft | 381 kts | 225° |
| 2026-04-24 02:08 | 34.51063 | -107.20007 | 29259 ft | 383 kts | 225° |
| 2026-04-24 02:09 | 34.48959 | -107.22012 | 29715 ft | 387 kts | 225° |
| 2026-04-24 02:09 | 34.46833 | -107.24035 | 30141 ft | 389 kts | 225° |
| 2026-04-24 02:09 | 34.44699 | -107.26062 | 30547 ft | 391 kts | 225° |
| 2026-04-24 02:09 | 34.42548 | -107.28105 | 30961 ft | 393 kts | 225° |
| 2026-04-24 02:10 | 34.40396 | -107.30147 | 31414 ft | 393 kts | 224° |
| 2026-04-24 02:10 | 34.38246 | -107.32183 | 31983 ft | 390 kts | 224° |
| 2026-04-24 02:10 | 34.36119 | -107.34196 | 32571 ft | 387 kts | 224° |
| 2026-04-24 02:10 | 34.34004 | -107.36197 | 33164 ft | 384 kts | 224° |
| 2026-04-24 02:11 | 34.31909 | -107.38180 | 33723 ft | 381 kts | 224° |
| 2026-04-24 02:11 | 34.29827 | -107.40150 | 34169 ft | 379 kts | 224° |
| 2026-04-24 02:11 | 34.27747 | -107.42120 | 34500 ft | 380 kts | 224° |
| 2026-04-24 02:11 | 34.25663 | -107.44091 | 34849 ft | 381 kts | 224° |
| 2026-04-24 02:12 | 34.23578 | -107.46061 | 35248 ft | 380 kts | 224° |
| 2026-04-24 02:12 | 34.21495 | -107.48026 | 35564 ft | 380 kts | 224° |
| 2026-04-24 02:12 | 34.19411 | -107.49992 | 35910 ft | 380 kts | 224° |
| 2026-04-24 02:12 | 34.17325 | -107.51957 | 36312 ft | 379 kts | 225° |
| 2026-04-24 02:13 | 34.15248 | -107.53912 | 36717 ft | 378 kts | 225° |
| 2026-04-24 02:13 | 34.13181 | -107.55857 | 37128 ft | 377 kts | 225° |
| 2026-04-24 02:13 | 34.11116 | -107.57799 | 37533 ft | 375 kts | 225° |
| 2026-04-24 02:13 | 34.09059 | -107.59733 | 37924 ft | 374 kts | 226° |
| 2026-04-24 02:14 | 34.07011 | -107.61656 | 38303 ft | 373 kts | 226° |
| 2026-04-24 02:14 | 34.04964 | -107.63578 | 38635 ft | 372 kts | 226° |
| 2026-04-24 02:14 | 34.02927 | -107.65489 | 38894 ft | 372 kts | 226° |
| 2026-04-24 02:14 | 34.00882 | -107.67408 | 39126 ft | 373 kts | 226° |
| 2026-04-24 02:15 | 33.98832 | -107.69329 | 39326 ft | 374 kts | 226° |
| 2026-04-24 02:15 | 33.96777 | -107.71255 | 39571 ft | 374 kts | 226° |
| 2026-04-24 02:15 | 33.94721 | -107.73179 | 39751 ft | 376 kts | 226° |
| 2026-04-24 02:15 | 33.92653 | -107.75114 | 39786 ft | 374 kts | 226° |
| 2026-04-24 02:16 | 33.88575 | -107.78918 | 39795 ft | 369 kts | 226° |
| 2026-04-24 02:16 | 33.84525 | -107.82699 | 39794 ft | 369 kts | 226° |
| 2026-04-24 02:17 | 33.80468 | -107.86482 | 39801 ft | 369 kts | 226° |
| 2026-04-24 02:17 | 33.76404 | -107.90266 | 39821 ft | 370 kts | 226° |
| 2026-04-24 02:18 | 33.72363 | -107.94022 | 39817 ft | 369 kts | 226° |
| 2026-04-24 02:18 | 33.68296 | -107.97798 | 39824 ft | 369 kts | 226° |
| 2026-04-24 02:19 | 33.64229 | -108.01569 | 39796 ft | 369 kts | 226° |
| 2026-04-24 02:19 | 33.60164 | -108.05335 | 39840 ft | 369 kts | 226° |
| 2026-04-24 02:20 | 33.56102 | -108.09093 | 39845 ft | 368 kts | 226° |
| 2026-04-24 02:20 | 33.52045 | -108.12841 | 39843 ft | 368 kts | 226° |
| 2026-04-24 02:21 | 33.47944 | -108.16634 | 39851 ft | 379 kts | 226° |
| 2026-04-24 02:21 | 33.43701 | -108.20551 | 39844 ft | 391 kts | 225° |
| 2026-04-24 02:22 | 33.39321 | -108.24582 | 39850 ft | 401 kts | 225° |
| 2026-04-24 02:22 | 33.34904 | -108.28634 | 39826 ft | 398 kts | 225° |
| 2026-04-24 02:23 | 33.30533 | -108.32642 | 39854 ft | 394 kts | 225° |
| 2026-04-24 02:23 | 33.26186 | -108.36628 | 39849 ft | 394 kts | 225° |
| 2026-04-24 02:24 | 33.21843 | -108.40608 | 39843 ft | 394 kts | 225° |
| 2026-04-24 02:24 | 33.17494 | -108.44586 | 39849 ft | 394 kts | 225° |
| 2026-04-24 02:25 | 33.13136 | -108.48566 | 39846 ft | 394 kts | 225° |
| 2026-04-24 02:25 | 33.08794 | -108.52524 | 39839 ft | 392 kts | 225° |
| 2026-04-24 02:26 | 33.04455 | -108.56479 | 39822 ft | 392 kts | 226° |
| 2026-04-24 02:26 | 33.00138 | -108.60405 | 39823 ft | 389 kts | 226° |
| 2026-04-24 02:27 | 32.95839 | -108.64312 | 39827 ft | 389 kts | 226° |
| 2026-04-24 02:27 | 32.91542 | -108.68213 | 39829 ft | 389 kts | 226° |
| 2026-04-24 02:28 | 32.87266 | -108.72091 | 39823 ft | 389 kts | 226° |
| 2026-04-24 02:28 | 32.82958 | -108.75993 | 39831 ft | 389 kts | 226° |
| 2026-04-24 02:29 | 32.78661 | -108.79876 | 39480 ft | 386 kts | 226° |
| 2026-04-24 02:29 | 32.76525 | -108.81805 | 38920 ft | 386 kts | 226° |
| 2026-04-24 02:29 | 32.74396 | -108.83727 | 38523 ft | 382 kts | 226° |
| 2026-04-24 02:30 | 32.72292 | -108.85621 | 38013 ft | 379 kts | 226° |
| 2026-04-24 02:30 | 32.70194 | -108.87514 | 37583 ft | 379 kts | 226° |
| 2026-04-24 02:30 | 32.68091 | -108.89414 | 37253 ft | 384 kts | 226° |
| 2026-04-24 02:30 | 32.65960 | -108.91336 | 36933 ft | 383 kts | 226° |
| 2026-04-24 02:31 | 32.63852 | -108.93229 | 36521 ft | 377 kts | 226° |
| 2026-04-24 02:31 | 32.61776 | -108.95092 | 36168 ft | 371 kts | 226° |
| 2026-04-24 02:31 | 32.59735 | -108.96923 | 35827 ft | 365 kts | 226° |
| 2026-04-24 02:31 | 32.57720 | -108.98733 | 35433 ft | 362 kts | 226° |
| 2026-04-24 02:32 | 32.55724 | -109.00527 | 35044 ft | 359 kts | 226° |
| 2026-04-24 02:32 | 32.53738 | -109.02312 | 34611 ft | 358 kts | 226° |
| 2026-04-24 02:32 | 32.51754 | -109.04096 | 34076 ft | 359 kts | 226° |
| 2026-04-24 02:32 | 32.49753 | -109.05893 | 33494 ft | 361 kts | 226° |
| 2026-04-24 02:33 | 32.47742 | -109.07699 | 32994 ft | 367 kts | 225° |
| 2026-04-24 02:33 | 32.45673 | -109.09561 | 32808 ft | 380 kts | 225° |
| 2026-04-24 02:33 | 32.41386 | -109.13397 | 32822 ft | 388 kts | 225° |
| 2026-04-24 02:34 | 32.37090 | -109.17224 | 32828 ft | 386 kts | 225° |
| 2026-04-24 02:34 | 32.32806 | -109.21044 | 32817 ft | 386 kts | 225° |
| 2026-04-24 02:35 | 32.30675 | -109.22946 | 32312 ft | 382 kts | 225° |
| 2026-04-24 02:35 | 32.28712 | -109.25046 | 31251 ft | 382 kts | 234° |
| 2026-04-24 02:35 | 32.27219 | -109.27656 | 30087 ft | 387 kts | 247° |
| 2026-04-24 02:35 | 32.26350 | -109.30685 | 28812 ft | 395 kts | 259° |
| 2026-04-24 02:36 | 32.25897 | -109.33904 | 27831 ft | 398 kts | 262° |
| 2026-04-24 02:36 | 32.25499 | -109.37135 | 27028 ft | 398 kts | 262° |
| 2026-04-24 02:36 | 32.25087 | -109.40359 | 26301 ft | 394 kts | 262° |
| 2026-04-24 02:36 | 32.24680 | -109.43513 | 25248 ft | 382 kts | 262° |
| 2026-04-24 02:37 | 32.24296 | -109.46508 | 24610 ft | 352 kts | 262° |
| 2026-04-24 02:37 | 32.24060 | -109.48343 | 24368 ft | 331 kts | 262° |
| 2026-04-24 02:37 | 32.23607 | -109.51902 | 23823 ft | 334 kts | 262° |
| 2026-04-24 02:37 | 32.23378 | -109.53707 | 23542 ft | 336 kts | 262° |
| 2026-04-24 02:38 | 32.23030 | -109.56428 | 23067 ft | 334 kts | 262° |
| 2026-04-24 02:38 | 32.22682 | -109.59161 | 22631 ft | 331 kts | 262° |
| 2026-04-24 02:38 | 32.22339 | -109.61835 | 22202 ft | 328 kts | 262° |
| 2026-04-24 02:38 | 32.21997 | -109.64499 | 21790 ft | 327 kts | 262° |
| 2026-04-24 02:39 | 32.21657 | -109.67143 | 21368 ft | 325 kts | 262° |
| 2026-04-24 02:39 | 32.21308 | -109.69778 | 20983 ft | 327 kts | 261° |
| 2026-04-24 02:39 | 32.20793 | -109.72429 | 20858 ft | 342 kts | 257° |
| 2026-04-24 02:39 | 32.20170 | -109.75169 | 20843 ft | 348 kts | 256° |
| 2026-04-24 02:40 | 32.19531 | -109.77926 | 20856 ft | 348 kts | 256° |
| 2026-04-24 02:40 | 32.18892 | -109.80685 | 20859 ft | 348 kts | 256° |
| 2026-04-24 02:40 | 32.18255 | -109.83441 | 20821 ft | 348 kts | 256° |
| 2026-04-24 02:40 | 32.17620 | -109.86181 | 20245 ft | 346 kts | 256° |
| 2026-04-24 02:41 | 32.16981 | -109.88947 | 19395 ft | 353 kts | 256° |
| 2026-04-24 02:41 | 32.16331 | -109.91759 | 18628 ft | 357 kts | 256° |
| 2026-04-24 02:41 | 32.15673 | -109.94601 | 17905 ft | 359 kts | 256° |
| 2026-04-24 02:41 | 32.15013 | -109.97447 | 17178 ft | 359 kts | 256° |
| 2026-04-24 02:42 | 32.14359 | -110.00266 | 16648 ft | 354 kts | 256° |
| 2026-04-24 02:42 | 32.13716 | -110.03029 | 16275 ft | 344 kts | 256° |
| 2026-04-24 02:42 | 32.13090 | -110.05716 | 15898 ft | 336 kts | 256° |
| 2026-04-24 02:42 | 32.12478 | -110.08346 | 15531 ft | 329 kts | 256° |
| 2026-04-24 02:43 | 32.11878 | -110.10927 | 15159 ft | 325 kts | 256° |
| 2026-04-24 02:43 | 32.11288 | -110.13501 | 14648 ft | 324 kts | 256° |
| 2026-04-24 02:43 | 32.10710 | -110.16021 | 14192 ft | 310 kts | 256° |
| 2026-04-24 02:43 | 32.10171 | -110.18371 | 13775 ft | 284 kts | 256° |
| 2026-04-24 02:44 | 32.09669 | -110.20564 | 13373 ft | 275 kts | 256° |
| 2026-04-24 02:44 | 32.09169 | -110.22761 | 13035 ft | 281 kts | 256° |
| 2026-04-24 02:44 | 32.08664 | -110.24970 | 12729 ft | 278 kts | 256° |
| 2026-04-24 02:44 | 32.08162 | -110.27163 | 12375 ft | 277 kts | 256° |
| 2026-04-24 02:45 | 32.07661 | -110.29353 | 12041 ft | 276 kts | 256° |
| 2026-04-24 02:45 | 32.07162 | -110.31526 | 11767 ft | 274 kts | 256° |
| 2026-04-24 02:45 | 32.06669 | -110.33671 | 11849 ft | 271 kts | 256° |
| 2026-04-24 02:45 | 32.06172 | -110.35835 | 11931 ft | 275 kts | 256° |
| 2026-04-24 02:46 | 32.05677 | -110.37988 | 11720 ft | 271 kts | 256° |
| 2026-04-24 02:46 | 32.05182 | -110.40138 | 11316 ft | 273 kts | 255° |
| 2026-04-24 02:46 | 32.04685 | -110.42293 | 10973 ft | 272 kts | 255° |
| 2026-04-24 02:46 | 32.04188 | -110.44448 | 10572 ft | 273 kts | 255° |
| 2026-04-24 02:47 | 32.03689 | -110.46608 | 10219 ft | 273 kts | 255° |
| 2026-04-24 02:47 | 32.03196 | -110.48742 | 9731 ft | 268 kts | 255° |
| 2026-04-24 02:47 | 32.02710 | -110.50848 | 8892 ft | 266 kts | 255° |
| 2026-04-24 02:47 | 32.02216 | -110.52983 | 8316 ft | 273 kts | 255° |
| 2026-04-24 02:48 | 32.01718 | -110.55132 | 8074 ft | 267 kts | 255° |
| 2026-04-24 02:48 | 32.01230 | -110.57258 | 8001 ft | 270 kts | 256° |
| 2026-04-24 02:48 | 32.00751 | -110.59375 | 7708 ft | 266 kts | 256° |
| 2026-04-24 02:48 | 32.00272 | -110.61488 | 7257 ft | 268 kts | 256° |
| 2026-04-24 02:49 | 31.99795 | -110.63588 | 6887 ft | 268 kts | 256° |
| 2026-04-24 02:49 | 31.99308 | -110.65731 | 6505 ft | 267 kts | 256° |
| 2026-04-24 02:49 | 31.98833 | -110.67816 | 6226 ft | 267 kts | 256° |
| 2026-04-24 02:49 | 31.98353 | -110.69926 | 6155 ft | 267 kts | 256° |
| 2026-04-24 02:50 | 31.97865 | -110.72070 | 6159 ft | 268 kts | 256° |
| 2026-04-24 02:50 | 31.97391 | -110.74179 | 6121 ft | 260 kts | 258° |
| 2026-04-24 02:50 | 31.97276 | -110.76206 | 5791 ft | 243 kts | 281° |
| 2026-04-24 02:50 | 31.97977 | -110.77955 | 5567 ft | 233 kts | 308° |
| 2026-04-24 02:51 | 31.99038 | -110.79296 | 5382 ft | 215 kts | 314° |
| 2026-04-24 02:51 | 32.00059 | -110.80464 | 5280 ft | 193 kts | 315° |
| 2026-04-24 02:51 | 32.00972 | -110.81504 | 5161 ft | 178 kts | 312° |
| 2026-04-24 02:51 | 32.01818 | -110.82474 | 5030 ft | 161 kts | 312° |
| 2026-04-24 02:52 | 32.02585 | -110.83360 | 4911 ft | 146 kts | 312° |
| 2026-04-24 02:52 | 32.03273 | -110.84161 | 4699 ft | 136 kts | 311° |
| 2026-04-24 02:52 | 32.03925 | -110.84923 | 4511 ft | 125 kts | 311° |
| 2026-04-24 02:52 | 32.04525 | -110.85628 | 4359 ft | 123 kts | 311° |
| 2026-04-24 02:53 | 32.05132 | -110.86340 | 4190 ft | 123 kts | 312° |
| 2026-04-24 02:53 | 32.05738 | -110.87052 | 4013 ft | 124 kts | 313° |
| 2026-04-24 02:53 | 32.06358 | -110.87780 | 3820 ft | 124 kts | 314° |
| 2026-04-24 02:53 | 32.06971 | -110.88497 | 3641 ft | 124 kts | 313° |
| 2026-04-24 02:54 | 32.07577 | -110.89208 | 3471 ft | 125 kts | 314° |
| 2026-04-24 02:54 | 32.08193 | -110.89930 | 3295 ft | 124 kts | 313° |
| 2026-04-24 02:54 | 32.08800 | -110.90640 | 3144 ft | 122 kts | 311° |
| 2026-04-24 02:54 | 32.09402 | -110.91362 | 2944 ft | 125 kts | 313° |
| 2026-04-24 02:55 | 32.10016 | -110.92073 | 2715 ft | 123 kts | 313° |
| 2026-04-24 02:55 | 32.10598 | -110.92742 | 2619 ft | 109 kts | 314° |
| 2026-04-24 02:55 | 32.10957 | -110.93173 | 2611 ft | 32 kts | 314° |
| 2026-04-24 02:55 | 32.10991 | -110.93214 | 2610 ft | 8 kts | 315° |
| 2026-04-24 02:56 | 32.11042 | -110.93313 | 2612 ft | 6 kts | 255° |
| 2026-04-24 02:56 | 32.11024 | -110.93343 | 2612 ft | 1 kts | 233° |
| 2026-04-24 02:56 | 32.11014 | -110.93357 | 2613 ft | 5 kts | 227° |
| 2026-04-24 02:56 | 32.11000 | -110.93373 | 2613 ft | 1 kts | 224° |
| 2026-04-24 02:57 | 32.10985 | -110.93390 | 2612 ft | 5 kts | 223° |
| 2026-04-24 02:57 | 32.10982 | -110.93393 | 2612 ft | 0 kts | 224° |